Andalusia, AL

3:10 AM CDT on July 23, 2014 (GMT -0500)
Chigger Hill off Moore Rd (KALANDAL3) Elev 280 ft | 31.25 °N, 86.50 °W | Change Station

Current weather conditions updated 2 seconds ago

Mostly Cloudy
Mostly Cloudy
72.0 °F
Feels Like 70 °F
N
0.0
Wind Variable Wind from West
Gusts 0.0 mph

Today is forecast to be Warmer than yesterday.

Today
High -- | Low -- °F
--% Chance of Precip.
Yesterday
High -- | Low -- °F
Precip. -- in
5:58 AM 7:48 PM
Waning Crescent, 12% visible
Pressure 30.03 in
Visibility 10.0 miles
Clouds Clear
Heat Index 70 °F
Dew Point 68 °F
Humidity 87%
Rainfall 0.00 in
Snow Depth Not available.
UV 0 out of 12
Pollen 3.30 out of 12
Air Quality Not available.
Flu Activity Not available.
METAR K79J 230756Z AUTO 00000KT 10SM CLR 24/22 A3005 RMK AO2 SLP169 T02440217

More Conditions Fewer Conditions

Pressure 30.03 in
Visibility 10.0 miles
Clouds Clear
Heat Index 70 °F
Dew Point 68 °F
Humidity 87%
Rainfall 0.00 in
Snow Depth Not available.
UV 0 out of 12
Pollen 3.30 out of 12
Air Quality Not available.
Flu Activity Not available.
METAR K79J 230756Z AUTO 00000KT 10SM CLR 24/22 A3005 RMK AO2 SLP169 T02440217

More Conditions Fewer Conditions

10-Day Weather Forecast

Almanac

Astronomy

Jul. 23, 2014 Rise Set
Actual Time 5:58 AM CDT 7:48 PM CDT
Civil Twilight 5:31 AM CDT 8:14 PM CDT
Nautical Twilight 4:58 AM CDT 8:47 PM CDT
Astronomical Twilight 4:24 AM CDT 9:21 PM CDT
Moon 3:15 AM CDT 5:17 PM CDT
Length of Visible Light 14h 43m
Length of Day
13h 50m
Tomorrow will be 1m 12s shorter.
Waning Crescent, 12% of the Moon is Illuminated
Today
Waning Crescent
Jul 26
New
Aug 3
First Quarter
Aug 10
Full
Aug 17
Last Quarter

Today's Extremes

State Highs State Lows

Community

WunderPhotos

Upload Photos

1,736,529 photos uploaded!

Nearby

Snow Depth

Station Depth Elevation
No new snow has been reported.

Earthquake Activity

City Distance Mag. Time & Date
No recent earthquake activity has been reported nearby.
Minimum magnitude displayed is 2.5.

Coastal Water Temperatures

Place Temperature
No Stations Reporting

Nearby Weather Stations

Station Location Temp. Heat Index Dew Point Humidity Wind Precip. Elev Updated Type
Chigger Hill off Moore Rd, Andalusia, AL 72.0 °F 70 °F 68 °F 87% West  at  0.0 mph 0.00 in / hr 280 ft 3:10 AM CDT Rapid Fire
Red Level, Red Level, AL 71.8 °F - 72 °F 99% East  at  0.0 mph 0.00 in / hr 345 ft 2:57 AM CDT Normal
HCN BREWTON 3 NNE AL , Brewton, AL 72 °F - - - North  at  - 0.00 in / hr 170 ft 1:40 AM CDT MADIS
299/84 Bypass - Hub Brown Rd, Opp, AL 71.5 °F - 71 °F 99% ESE  at  0.0 mph 0.00 in / hr 280 ft 3:01 AM CDT Normal

Show More Stations Show Fewer Stations